VOZ886 YSSY-YMML
Flight info
| Callsign | VOZ886 |
|---|---|
| Flight time | 1h 12m |
| Altitude | 34000 |
| Route | WOL H65 LEECE Q29 ML |
| Aircraft | B38M/M-SDE1FGHILORVWXY/HB1 |
Departure
| Time | 2026-05-06 23:27 |
|---|---|
| Airport | Sydney Kingsford Smith International Airport (YSSY) |
Arrival
| Time | 2026-05-07 00:40 |
|---|---|
| Airport | Melbourne Airport (YMML) |
| Time | Latitude | Longitude | Altitude | Speed | Heading |
|---|---|---|---|---|---|
| 2026-05-06 22:41 | -33.93626 | 151.17890 | 33 ft | 0 kts | 99° |
| 2026-05-06 23:15 | -33.93624 | 151.17880 | 33 ft | 2 kts | 99° |
| 2026-05-06 23:16 | -33.93622 | 151.17860 | 33 ft | 2 kts | 99° |
| 2026-05-06 23:16 | -33.93619 | 151.17841 | 33 ft | 2 kts | 116° |
| 2026-05-06 23:16 | -33.93607 | 151.17827 | 33 ft | 2 kts | 163° |
| 2026-05-06 23:16 | -33.93591 | 151.17825 | 33 ft | 2 kts | 182° |
| 2026-05-06 23:17 | -33.93584 | 151.17825 | 33 ft | 0 kts | 187° |
| 2026-05-06 23:19 | -33.93587 | 151.17825 | 33 ft | 3 kts | 187° |
| 2026-05-06 23:19 | -33.93650 | 151.17812 | 33 ft | 13 kts | 190° |
| 2026-05-06 23:19 | -33.93754 | 151.17789 | 29 ft | 18 kts | 191° |
| 2026-05-06 23:19 | -33.93849 | 151.17742 | 22 ft | 13 kts | 242° |
| 2026-05-06 23:20 | -33.93883 | 151.17633 | 25 ft | 13 kts | 229° |
| 2026-05-06 23:20 | -33.93970 | 151.17629 | 22 ft | 14 kts | 167° |
| 2026-05-06 23:20 | -33.94064 | 151.17654 | 24 ft | 14 kts | 167° |
| 2026-05-06 23:20 | -33.94167 | 151.17685 | 28 ft | 16 kts | 166° |
| 2026-05-06 23:21 | -33.94286 | 151.17721 | 24 ft | 19 kts | 166° |
| 2026-05-06 23:21 | -33.94414 | 151.17762 | 27 ft | 19 kts | 165° |
| 2026-05-06 23:21 | -33.94552 | 151.17802 | 25 ft | 22 kts | 167° |
| 2026-05-06 23:21 | -33.94701 | 151.17841 | 26 ft | 23 kts | 167° |
| 2026-05-06 23:22 | -33.94866 | 151.17884 | 26 ft | 25 kts | 169° |
| 2026-05-06 23:22 | -33.94978 | 151.17912 | 27 ft | 15 kts | 167° |
| 2026-05-06 23:22 | -33.95074 | 151.17938 | 28 ft | 11 kts | 167° |
| 2026-05-06 23:22 | -33.95139 | 151.17909 | 27 ft | 12 kts | 250° |
| 2026-05-06 23:23 | -33.95148 | 151.17866 | 26 ft | 2 kts | 258° |
| 2026-05-06 23:23 | -33.95149 | 151.17859 | 26 ft | 0 kts | 257° |
| 2026-05-06 23:26 | -33.95149 | 151.17858 | 30 ft | 1 kts | 257° |
| 2026-05-06 23:26 | -33.95158 | 151.17813 | 25 ft | 9 kts | 257° |
| 2026-05-06 23:26 | -33.95166 | 151.17746 | 25 ft | 7 kts | 288° |
| 2026-05-06 23:26 | -33.95104 | 151.17721 | 25 ft | 21 kts | 348° |
| 2026-05-06 23:27 | -33.94739 | 151.17626 | 25 ft | 85 kts | 348° |
| 2026-05-06 23:27 | -33.93972 | 151.17427 | 22 ft | 138 kts | 347° |
| 2026-05-06 23:27 | -33.92913 | 151.17155 | 227 ft | 160 kts | 346° |
| 2026-05-06 23:27 | -33.91837 | 151.16839 | 779 ft | 164 kts | 335° |
| 2026-05-06 23:28 | -33.90872 | 151.16102 | 1268 ft | 164 kts | 310° |
| 2026-05-06 23:28 | -33.90215 | 151.14966 | 1830 ft | 172 kts | 297° |
| 2026-05-06 23:28 | -33.89547 | 151.13642 | 2264 ft | 197 kts | 299° |
| 2026-05-06 23:28 | -33.88781 | 151.12175 | 2822 ft | 213 kts | 300° |
| 2026-05-06 23:29 | -33.87987 | 151.10673 | 3681 ft | 216 kts | 300° |
| 2026-05-06 23:29 | -33.87144 | 151.09091 | 4230 ft | 234 kts | 301° |
| 2026-05-06 23:29 | -33.86221 | 151.07377 | 4744 ft | 254 kts | 302° |
| 2026-05-06 23:29 | -33.85256 | 151.05588 | 5493 ft | 258 kts | 302° |
| 2026-05-06 23:30 | -33.84280 | 151.03778 | 6432 ft | 259 kts | 302° |
| 2026-05-06 23:30 | -33.83357 | 151.01909 | 7250 ft | 261 kts | 295° |
| 2026-05-06 23:30 | -33.82776 | 150.99845 | 8106 ft | 262 kts | 281° |
| 2026-05-06 23:30 | -33.82873 | 150.97668 | 8980 ft | 265 kts | 258° |
| 2026-05-06 23:31 | -33.83457 | 150.95548 | 9772 ft | 272 kts | 247° |
| 2026-05-06 23:31 | -33.84681 | 150.93765 | 10409 ft | 291 kts | 220° |
| 2026-05-06 23:31 | -33.86650 | 150.92856 | 10769 ft | 321 kts | 190° |
| 2026-05-06 23:31 | -33.88931 | 150.93221 | 11266 ft | 345 kts | 162° |
| 2026-05-06 23:32 | -33.91180 | 150.94362 | 11806 ft | 356 kts | 163° |
| 2026-05-06 23:32 | -33.93507 | 150.95408 | 12575 ft | 359 kts | 164° |
| 2026-05-06 23:32 | -33.95877 | 150.96442 | 13294 ft | 365 kts | 165° |
| 2026-05-06 23:32 | -33.98330 | 150.97158 | 14015 ft | 361 kts | 182° |
| 2026-05-06 23:33 | -34.00791 | 150.96846 | 14720 ft | 353 kts | 200° |
| 2026-05-06 23:33 | -34.03183 | 150.96120 | 15432 ft | 358 kts | 200° |
| 2026-05-06 23:33 | -34.05608 | 150.95374 | 16175 ft | 361 kts | 201° |
| 2026-05-06 23:33 | -34.08055 | 150.94604 | 16900 ft | 365 kts | 201° |
| 2026-05-06 23:34 | -34.10519 | 150.93817 | 17582 ft | 369 kts | 201° |
| 2026-05-06 23:34 | -34.13021 | 150.93011 | 18275 ft | 373 kts | 201° |
| 2026-05-06 23:34 | -34.15545 | 150.92195 | 18870 ft | 377 kts | 201° |
| 2026-05-06 23:34 | -34.18092 | 150.91370 | 19451 ft | 381 kts | 202° |
| 2026-05-06 23:35 | -34.20670 | 150.90535 | 20007 ft | 385 kts | 202° |
| 2026-05-06 23:35 | -34.23271 | 150.89691 | 20573 ft | 389 kts | 202° |
| 2026-05-06 23:35 | -34.25895 | 150.88841 | 21128 ft | 393 kts | 202° |
| 2026-05-06 23:35 | -34.28518 | 150.87988 | 21654 ft | 397 kts | 202° |
| 2026-05-06 23:36 | -34.31202 | 150.87117 | 22174 ft | 402 kts | 202° |
| 2026-05-06 23:36 | -34.33918 | 150.86233 | 22693 ft | 405 kts | 202° |
| 2026-05-06 23:36 | -34.36655 | 150.85343 | 23222 ft | 409 kts | 202° |
| 2026-05-06 23:36 | -34.39422 | 150.84442 | 23717 ft | 414 kts | 202° |
| 2026-05-06 23:37 | -34.42218 | 150.83531 | 24105 ft | 418 kts | 202° |
| 2026-05-06 23:37 | -34.45035 | 150.82613 | 24549 ft | 421 kts | 202° |
| 2026-05-06 23:37 | -34.47872 | 150.81687 | 24963 ft | 424 kts | 202° |
| 2026-05-06 23:37 | -34.50723 | 150.80756 | 25394 ft | 426 kts | 203° |
| 2026-05-06 23:38 | -34.53545 | 150.79667 | 25792 ft | 420 kts | 213° |
| 2026-05-06 23:38 | -34.55934 | 150.77789 | 26206 ft | 403 kts | 231° |
| 2026-05-06 23:38 | -34.57788 | 150.75298 | 26605 ft | 396 kts | 239° |
| 2026-05-06 23:38 | -34.59514 | 150.72685 | 27008 ft | 397 kts | 240° |
| 2026-05-06 23:39 | -34.61195 | 150.70028 | 27472 ft | 398 kts | 242° |
| 2026-05-06 23:39 | -34.62859 | 150.67334 | 27887 ft | 400 kts | 242° |
| 2026-05-06 23:39 | -34.64514 | 150.64622 | 28298 ft | 401 kts | 242° |
| 2026-05-06 23:39 | -34.66171 | 150.61884 | 28723 ft | 403 kts | 243° |
| 2026-05-06 23:40 | -34.67831 | 150.59128 | 29144 ft | 405 kts | 243° |
| 2026-05-06 23:40 | -34.69495 | 150.56361 | 29537 ft | 407 kts | 243° |
| 2026-05-06 23:40 | -34.71165 | 150.53577 | 29946 ft | 408 kts | 243° |
| 2026-05-06 23:40 | -34.72841 | 150.50785 | 30300 ft | 410 kts | 243° |
| 2026-05-06 23:41 | -34.74522 | 150.47981 | 30617 ft | 411 kts | 242° |
| 2026-05-06 23:41 | -34.76208 | 150.45168 | 30938 ft | 413 kts | 242° |
| 2026-05-06 23:41 | -34.77899 | 150.42341 | 31217 ft | 415 kts | 242° |
| 2026-05-06 23:41 | -34.79600 | 150.39497 | 31522 ft | 416 kts | 242° |
| 2026-05-06 23:42 | -34.81303 | 150.36647 | 31845 ft | 417 kts | 242° |
| 2026-05-06 23:42 | -34.83010 | 150.33792 | 32490 ft | 415 kts | 244° |
| 2026-05-06 23:42 | -34.84702 | 150.30952 | 32863 ft | 414 kts | 244° |
| 2026-05-06 23:42 | -34.86389 | 150.28122 | 33241 ft | 413 kts | 244° |
| 2026-05-06 23:43 | -34.88077 | 150.25287 | 33660 ft | 412 kts | 244° |
| 2026-05-06 23:43 | -34.89758 | 150.22461 | 33993 ft | 412 kts | 243° |
| 2026-05-06 23:43 | -34.91444 | 150.19627 | 34064 ft | 416 kts | 243° |
| 2026-05-06 23:44 | -34.94826 | 150.13933 | 34052 ft | 417 kts | 243° |
| 2026-05-06 23:44 | -34.98223 | 150.08202 | 34060 ft | 417 kts | 243° |
| 2026-05-06 23:45 | -35.01628 | 150.02452 | 34066 ft | 418 kts | 243° |
| 2026-05-06 23:45 | -35.05030 | 149.96697 | 34057 ft | 418 kts | 243° |
| 2026-05-06 23:46 | -35.08435 | 149.90924 | 34068 ft | 419 kts | 243° |
| 2026-05-06 23:46 | -35.11839 | 149.85146 | 34059 ft | 420 kts | 242° |
| 2026-05-06 23:47 | -35.15251 | 149.79343 | 34066 ft | 421 kts | 242° |
| 2026-05-06 23:47 | -35.18674 | 149.73515 | 34074 ft | 422 kts | 242° |
| 2026-05-06 23:48 | -35.22103 | 149.67664 | 34074 ft | 423 kts | 242° |
| 2026-05-06 23:48 | -35.25534 | 149.61801 | 34076 ft | 424 kts | 242° |
| 2026-05-06 23:49 | -35.28967 | 149.55923 | 34076 ft | 425 kts | 242° |
| 2026-05-06 23:49 | -35.32403 | 149.50032 | 34073 ft | 426 kts | 242° |
| 2026-05-06 23:50 | -35.35846 | 149.44119 | 34070 ft | 427 kts | 241° |
| 2026-05-06 23:50 | -35.41028 | 149.35201 | 34066 ft | 429 kts | 241° |
| 2026-05-06 23:51 | -35.44487 | 149.29235 | 34061 ft | 430 kts | 241° |
| 2026-05-06 23:51 | -35.47948 | 149.23254 | 34062 ft | 429 kts | 241° |
| 2026-05-06 23:52 | -35.51403 | 149.17274 | 34072 ft | 430 kts | 240° |
| 2026-05-06 23:52 | -35.54852 | 149.11295 | 34076 ft | 429 kts | 240° |
| 2026-05-06 23:53 | -35.58300 | 149.05307 | 34091 ft | 429 kts | 240° |
| 2026-05-06 23:53 | -35.61722 | 148.99354 | 34106 ft | 429 kts | 240° |
| 2026-05-06 23:54 | -35.65173 | 148.93339 | 34101 ft | 431 kts | 240° |
| 2026-05-06 23:54 | -35.68625 | 148.87312 | 34119 ft | 431 kts | 239° |
| 2026-05-06 23:55 | -35.72077 | 148.81276 | 34117 ft | 431 kts | 239° |
| 2026-05-06 23:55 | -35.75526 | 148.75234 | 34122 ft | 432 kts | 239° |
| 2026-05-06 23:56 | -35.78974 | 148.69182 | 34135 ft | 432 kts | 239° |
| 2026-05-06 23:56 | -35.82423 | 148.63122 | 34134 ft | 432 kts | 239° |
| 2026-05-06 23:57 | -35.85873 | 148.57049 | 34141 ft | 433 kts | 238° |
| 2026-05-06 23:57 | -35.89311 | 148.50968 | 34151 ft | 432 kts | 238° |
| 2026-05-06 23:58 | -35.92744 | 148.44876 | 34161 ft | 432 kts | 238° |
| 2026-05-06 23:58 | -35.96174 | 148.38782 | 34160 ft | 432 kts | 238° |
| 2026-05-06 23:59 | -35.99579 | 148.32720 | 34167 ft | 432 kts | 238° |
| 2026-05-06 23:59 | -36.02999 | 148.26622 | 34171 ft | 432 kts | 238° |
| 2026-05-07 00:00 | -36.06417 | 148.20516 | 34174 ft | 432 kts | 237° |
| 2026-05-07 00:00 | -36.09278 | 148.15398 | 34166 ft | 432 kts | 237° |
| 2026-05-07 00:01 | -36.13245 | 148.08302 | 34176 ft | 432 kts | 237° |
| 2026-05-07 00:01 | -36.16663 | 148.02189 | 34178 ft | 431 kts | 237° |
| 2026-05-07 00:02 | -36.20074 | 147.96077 | 34183 ft | 432 kts | 237° |
| 2026-05-07 00:02 | -36.23480 | 147.89963 | 34175 ft | 431 kts | 236° |
| 2026-05-07 00:03 | -36.26881 | 147.83847 | 34179 ft | 430 kts | 236° |
| 2026-05-07 00:03 | -36.30272 | 147.77738 | 34175 ft | 430 kts | 236° |
| 2026-05-07 00:04 | -36.33649 | 147.71638 | 34178 ft | 429 kts | 236° |
| 2026-05-07 00:04 | -36.37021 | 147.65529 | 34175 ft | 428 kts | 236° |
| 2026-05-07 00:05 | -36.39814 | 147.60460 | 34176 ft | 428 kts | 236° |
| 2026-05-07 00:05 | -36.43168 | 147.54362 | 34174 ft | 427 kts | 236° |
| 2026-05-07 00:06 | -36.47058 | 147.47278 | 34172 ft | 427 kts | 235° |
| 2026-05-07 00:06 | -36.49857 | 147.42171 | 34178 ft | 426 kts | 235° |
| 2026-05-07 00:07 | -36.53193 | 147.36074 | 34174 ft | 426 kts | 235° |
| 2026-05-07 00:07 | -36.56517 | 147.29989 | 34174 ft | 425 kts | 235° |
| 2026-05-07 00:08 | -36.59838 | 147.23897 | 34172 ft | 424 kts | 235° |
| 2026-05-07 00:08 | -36.63125 | 147.17858 | 34178 ft | 423 kts | 234° |
| 2026-05-07 00:09 | -36.66417 | 147.11798 | 34178 ft | 422 kts | 234° |
| 2026-05-07 00:09 | -36.69697 | 147.05753 | 34190 ft | 421 kts | 234° |
| 2026-05-07 00:10 | -36.72966 | 146.99711 | 34186 ft | 420 kts | 234° |
| 2026-05-07 00:10 | -36.76226 | 146.93676 | 34187 ft | 419 kts | 234° |
| 2026-05-07 00:11 | -36.79482 | 146.87640 | 34188 ft | 419 kts | 234° |
| 2026-05-07 00:11 | -36.82709 | 146.81647 | 34015 ft | 412 kts | 233° |
| 2026-05-07 00:12 | -36.84305 | 146.78679 | 33782 ft | 411 kts | 233° |
| 2026-05-07 00:12 | -36.85896 | 146.75718 | 33547 ft | 410 kts | 233° |
| 2026-05-07 00:12 | -36.87481 | 146.72766 | 33314 ft | 409 kts | 233° |
| 2026-05-07 00:12 | -36.89064 | 146.69812 | 33083 ft | 408 kts | 232° |
| 2026-05-07 00:13 | -36.90642 | 146.66868 | 32841 ft | 408 kts | 232° |
| 2026-05-07 00:13 | -36.92216 | 146.63928 | 32629 ft | 407 kts | 232° |
| 2026-05-07 00:13 | -36.93775 | 146.61012 | 32358 ft | 398 kts | 231° |
| 2026-05-07 00:13 | -36.95303 | 146.58153 | 31838 ft | 393 kts | 230° |
| 2026-05-07 00:14 | -36.96818 | 146.55316 | 31234 ft | 392 kts | 229° |
| 2026-05-07 00:14 | -36.98324 | 146.52492 | 30663 ft | 389 kts | 229° |
| 2026-05-07 00:14 | -36.99819 | 146.49688 | 30092 ft | 386 kts | 228° |
| 2026-05-07 00:14 | -37.01279 | 146.46946 | 29477 ft | 382 kts | 227° |
| 2026-05-07 00:15 | -37.02743 | 146.44191 | 28924 ft | 377 kts | 227° |
| 2026-05-07 00:15 | -37.04182 | 146.41487 | 28417 ft | 371 kts | 227° |
| 2026-05-07 00:15 | -37.05606 | 146.38810 | 27903 ft | 367 kts | 226° |
| 2026-05-07 00:15 | -37.07011 | 146.36167 | 27375 ft | 362 kts | 226° |
| 2026-05-07 00:16 | -37.08396 | 146.33553 | 26830 ft | 359 kts | 226° |
| 2026-05-07 00:16 | -37.09769 | 146.30962 | 26373 ft | 354 kts | 225° |
| 2026-05-07 00:16 | -37.11118 | 146.28413 | 25924 ft | 349 kts | 225° |
| 2026-05-07 00:16 | -37.12451 | 146.25895 | 25464 ft | 344 kts | 225° |
| 2026-05-07 00:17 | -37.13766 | 146.23409 | 24997 ft | 340 kts | 224° |
| 2026-05-07 00:17 | -37.15065 | 146.20952 | 24551 ft | 336 kts | 224° |
| 2026-05-07 00:17 | -37.16348 | 146.18522 | 24109 ft | 333 kts | 224° |
| 2026-05-07 00:17 | -37.17619 | 146.16112 | 23638 ft | 329 kts | 224° |
| 2026-05-07 00:18 | -37.18872 | 146.13734 | 23155 ft | 325 kts | 224° |
| 2026-05-07 00:18 | -37.20110 | 146.11386 | 22685 ft | 320 kts | 224° |
| 2026-05-07 00:18 | -37.21327 | 146.09074 | 22300 ft | 314 kts | 225° |
| 2026-05-07 00:18 | -37.22519 | 146.06807 | 21904 ft | 310 kts | 225° |
| 2026-05-07 00:19 | -37.23702 | 146.04557 | 21491 ft | 307 kts | 225° |
| 2026-05-07 00:19 | -37.24866 | 146.02343 | 21133 ft | 302 kts | 225° |
| 2026-05-07 00:19 | -37.26018 | 146.00150 | 20750 ft | 299 kts | 225° |
| 2026-05-07 00:19 | -37.27153 | 145.97988 | 20381 ft | 297 kts | 225° |
| 2026-05-07 00:20 | -37.28303 | 145.95797 | 19998 ft | 302 kts | 226° |
| 2026-05-07 00:20 | -37.29467 | 145.93578 | 19627 ft | 306 kts | 226° |
| 2026-05-07 00:20 | -37.30637 | 145.91347 | 19232 ft | 305 kts | 227° |
| 2026-05-07 00:20 | -37.31807 | 145.89121 | 18813 ft | 304 kts | 227° |
| 2026-05-07 00:21 | -37.32963 | 145.86919 | 18454 ft | 301 kts | 227° |
| 2026-05-07 00:21 | -37.34105 | 145.84742 | 18044 ft | 296 kts | 228° |
| 2026-05-07 00:21 | -37.35231 | 145.82596 | 17672 ft | 292 kts | 228° |
| 2026-05-07 00:21 | -37.36339 | 145.80481 | 17312 ft | 287 kts | 228° |
| 2026-05-07 00:22 | -37.37430 | 145.78397 | 16972 ft | 284 kts | 229° |
| 2026-05-07 00:22 | -37.38536 | 145.76290 | 16598 ft | 292 kts | 229° |
| 2026-05-07 00:22 | -37.39660 | 145.74141 | 16236 ft | 297 kts | 230° |
| 2026-05-07 00:22 | -37.40798 | 145.71964 | 15889 ft | 298 kts | 230° |
| 2026-05-07 00:23 | -37.41938 | 145.69780 | 15530 ft | 298 kts | 231° |
| 2026-05-07 00:23 | -37.43074 | 145.67604 | 15163 ft | 298 kts | 231° |
| 2026-05-07 00:23 | -37.44215 | 145.65420 | 14811 ft | 298 kts | 232° |
| 2026-05-07 00:23 | -37.45356 | 145.63241 | 14423 ft | 299 kts | 232° |
| 2026-05-07 00:24 | -37.46489 | 145.61085 | 13997 ft | 299 kts | 233° |
| 2026-05-07 00:24 | -37.47632 | 145.58910 | 13560 ft | 297 kts | 233° |
| 2026-05-07 00:24 | -37.48763 | 145.56755 | 13175 ft | 293 kts | 233° |
| 2026-05-07 00:24 | -37.49881 | 145.54623 | 12780 ft | 290 kts | 233° |
| 2026-05-07 00:25 | -37.50986 | 145.52515 | 12411 ft | 287 kts | 233° |
| 2026-05-07 00:25 | -37.52082 | 145.50421 | 11959 ft | 287 kts | 233° |
| 2026-05-07 00:25 | -37.53186 | 145.48313 | 11465 ft | 288 kts | 233° |
| 2026-05-07 00:25 | -37.54284 | 145.46212 | 11053 ft | 287 kts | 233° |
| 2026-05-07 00:26 | -37.55378 | 145.44120 | 10663 ft | 286 kts | 233° |
| 2026-05-07 00:26 | -37.56456 | 145.42055 | 10476 ft | 277 kts | 233° |
| 2026-05-07 00:26 | -37.57492 | 145.40071 | 10334 ft | 263 kts | 233° |
| 2026-05-07 00:26 | -37.58462 | 145.38218 | 10209 ft | 244 kts | 233° |
| 2026-05-07 00:27 | -37.59360 | 145.36496 | 10143 ft | 225 kts | 233° |
| 2026-05-07 00:27 | -37.59952 | 145.34683 | 10069 ft | 236 kts | 259° |
| 2026-05-07 00:27 | -37.59713 | 145.32521 | 10016 ft | 264 kts | 281° |
| 2026-05-07 00:27 | -37.58856 | 145.30396 | 9952 ft | 281 kts | 300° |
| 2026-05-07 00:28 | -37.57392 | 145.28666 | 9942 ft | 296 kts | 317° |
| 2026-05-07 00:28 | -37.55740 | 145.27110 | 9944 ft | 297 kts | 316° |
| 2026-05-07 00:28 | -37.54097 | 145.25535 | 9944 ft | 297 kts | 316° |
| 2026-05-07 00:28 | -37.52456 | 145.23951 | 9941 ft | 297 kts | 315° |
| 2026-05-07 00:29 | -37.50816 | 145.22364 | 9799 ft | 298 kts | 315° |
| 2026-05-07 00:29 | -37.49175 | 145.20773 | 9532 ft | 297 kts | 315° |
| 2026-05-07 00:30 | -37.44903 | 145.15493 | 8552 ft | 273 kts | 279° |
| 2026-05-07 00:30 | -37.44637 | 145.13203 | 8304 ft | 261 kts | 266° |
| 2026-05-07 00:30 | -37.44530 | 145.10936 | 8048 ft | 259 kts | 266° |
| 2026-05-07 00:30 | -37.44450 | 145.08680 | 7747 ft | 254 kts | 265° |
| 2026-05-07 00:31 | -37.44391 | 145.06509 | 7483 ft | 243 kts | 264° |
| 2026-05-07 00:31 | -37.44341 | 145.04433 | 7213 ft | 231 kts | 264° |
| 2026-05-07 00:31 | -37.44302 | 145.02403 | 6984 ft | 233 kts | 264° |
| 2026-05-07 00:31 | -37.44266 | 145.00361 | 6716 ft | 233 kts | 264° |
| 2026-05-07 00:32 | -37.44232 | 144.98328 | 6413 ft | 232 kts | 264° |
| 2026-05-07 00:32 | -37.44200 | 144.96310 | 6148 ft | 229 kts | 264° |
| 2026-05-07 00:32 | -37.44185 | 144.94346 | 5889 ft | 218 kts | 258° |
| 2026-05-07 00:32 | -37.44404 | 144.92527 | 5627 ft | 205 kts | 253° |
| 2026-05-07 00:33 | -37.44654 | 144.90816 | 5459 ft | 192 kts | 253° |
| 2026-05-07 00:33 | -37.44882 | 144.89238 | 5266 ft | 181 kts | 253° |
| 2026-05-07 00:33 | -37.45101 | 144.87706 | 5061 ft | 175 kts | 253° |
| 2026-05-07 00:33 | -37.45313 | 144.86217 | 4858 ft | 170 kts | 252° |
| 2026-05-07 00:34 | -37.45520 | 144.84768 | 4666 ft | 167 kts | 252° |
| 2026-05-07 00:34 | -37.45723 | 144.83337 | 4501 ft | 166 kts | 253° |
| 2026-05-07 00:34 | -37.45947 | 144.81920 | 4303 ft | 162 kts | 245° |
| 2026-05-07 00:34 | -37.46599 | 144.80840 | 4060 ft | 155 kts | 214° |
| 2026-05-07 00:35 | -37.47612 | 144.80382 | 3861 ft | 159 kts | 189° |
| 2026-05-07 00:35 | -37.48731 | 144.80466 | 3662 ft | 163 kts | 180° |
| 2026-05-07 00:35 | -37.49858 | 144.80643 | 3438 ft | 163 kts | 179° |
| 2026-05-07 00:35 | -37.50982 | 144.80837 | 3234 ft | 163 kts | 179° |
| 2026-05-07 00:36 | -37.52103 | 144.81039 | 3045 ft | 163 kts | 179° |
| 2026-05-07 00:36 | -37.53230 | 144.81244 | 2854 ft | 163 kts | 179° |
| 2026-05-07 00:36 | -37.54351 | 144.81452 | 2655 ft | 163 kts | 179° |
| 2026-05-07 00:36 | -37.55482 | 144.81662 | 2439 ft | 165 kts | 179° |
| 2026-05-07 00:37 | -37.56614 | 144.81872 | 2229 ft | 164 kts | 179° |
| 2026-05-07 00:37 | -37.57708 | 144.82076 | 2012 ft | 151 kts | 179° |
| 2026-05-07 00:37 | -37.58674 | 144.82261 | 1825 ft | 130 kts | 180° |
| 2026-05-07 00:37 | -37.59535 | 144.82418 | 1665 ft | 125 kts | 180° |
| 2026-05-07 00:38 | -37.60400 | 144.82576 | 1464 ft | 127 kts | 179° |
| 2026-05-07 00:38 | -37.61285 | 144.82742 | 1261 ft | 131 kts | 178° |
| 2026-05-07 00:38 | -37.62206 | 144.82921 | 1041 ft | 135 kts | 177° |
| 2026-05-07 00:38 | -37.63137 | 144.83097 | 867 ft | 136 kts | 175° |
| 2026-05-07 00:39 | -37.64098 | 144.83269 | 715 ft | 142 kts | 175° |
| 2026-05-07 00:39 | -37.65068 | 144.83449 | 526 ft | 138 kts | 175° |
| 2026-05-07 00:39 | -37.65977 | 144.83614 | 415 ft | 122 kts | 174° |
| 2026-05-07 00:39 | -37.66576 | 144.83730 | 408 ft | 54 kts | 171° |
| 2026-05-07 00:40 | -37.66874 | 144.83788 | 402 ft | 34 kts | 171° |
| 2026-05-07 00:40 | -37.67089 | 144.83916 | 394 ft | 31 kts | 142° |
| 2026-05-07 00:40 | -37.67197 | 144.84028 | 387 ft | 8 kts | 133° |
| 2026-05-07 00:40 | -37.67224 | 144.84104 | 386 ft | 11 kts | 85° |
| 2026-05-07 00:41 | -37.67219 | 144.84168 | 387 ft | 7 kts | 84° |
| 2026-05-07 00:41 | -37.67212 | 144.84238 | 388 ft | 8 kts | 83° |
| 2026-05-07 00:41 | -37.67205 | 144.84315 | 389 ft | 9 kts | 83° |
| 2026-05-07 00:41 | -37.67198 | 144.84401 | 390 ft | 11 kts | 86° |
| 2026-05-07 00:42 | -37.67212 | 144.84501 | 391 ft | 13 kts | 98° |
| 2026-05-07 00:42 | -37.67200 | 144.84612 | 394 ft | 13 kts | 81° |
| 2026-05-07 00:42 | -37.67187 | 144.84712 | 394 ft | 7 kts | 75° |
| 2026-05-07 00:42 | -37.67154 | 144.84745 | 395 ft | 6 kts | 31° |
| 2026-05-07 00:43 | -37.67148 | 144.84750 | 398 ft | 0 kts | 31° |